sensor_id;sensor_type;location;lat;lon;timestamp;temperature;humidity
19090;DHT22;9677;50.656;13.064;2022-11-20T00:01:12;0.50;59.20
19090;DHT22;9677;50.656;13.064;2022-11-20T00:03:42;0.50;59.20
19090;DHT22;9677;50.656;13.064;2022-11-20T00:06:12;0.80;59.30
19090;DHT22;9677;50.656;13.064;2022-11-20T00:08:42;0.50;59.20
19090;DHT22;9677;50.656;13.064;2022-11-20T00:11:13;0.50;59.20
19090;DHT22;9677;50.656;13.064;2022-11-20T00:13:44;0.50;59.10
19090;DHT22;9677;50.656;13.064;2022-11-20T00:16:16;1.10;59.30
19090;DHT22;9677;50.656;13.064;2022-11-20T00:18:47;0.70;59.10
19090;DHT22;9677;50.656;13.064;2022-11-20T00:21:18;0.40;58.80
19090;DHT22;9677;50.656;13.064;2022-11-20T00:23:49;0.40;58.80
19090;DHT22;9677;50.656;13.064;2022-11-20T00:26:22;0.80;59.00
19090;DHT22;9677;50.656;13.064;2022-11-20T00:28:54;0.80;59.00
19090;DHT22;9677;50.656;13.064;2022-11-20T00:31:25;0.40;58.90
19090;DHT22;9677;50.656;13.064;2022-11-20T00:33:54;0.30;58.90
19090;DHT22;9677;50.656;13.064;2022-11-20T00:36:24;0.30;58.90
19090;DHT22;9677;50.656;13.064;2022-11-20T00:38:55;0.30;58.90
19090;DHT22;9677;50.656;13.064;2022-11-20T00:41:27;0.30;59.00
19090;DHT22;9677;50.656;13.064;2022-11-20T00:43:57;0.30;59.00
19090;DHT22;9677;50.656;13.064;2022-11-20T00:46:27;0.30;59.10
19090;DHT22;9677;50.656;13.064;2022-11-20T00:48:56;0.30;59.40
19090;DHT22;9677;50.656;13.064;2022-11-20T00:51:26;0.20;59.10
19090;DHT22;9677;50.656;13.064;2022-11-20T00:53:56;0.50;59.20
19090;DHT22;9677;50.656;13.064;2022-11-20T00:56:25;0.20;59.10
19090;DHT22;9677;50.656;13.064;2022-11-20T00:58:53;0.20;59.10
19090;DHT22;9677;50.656;13.064;2022-11-20T01:01:25;0.20;59.00
19090;DHT22;9677;50.656;13.064;2022-11-20T01:03:58;0.20;59.10
19090;DHT22;9677;50.656;13.064;2022-11-20T01:06:29;0.20;59.10
19090;DHT22;9677;50.656;13.064;2022-11-20T01:09:00;0.60;59.20
19090;DHT22;9677;50.656;13.064;2022-11-20T01:11:31;0.90;59.40
19090;DHT22;9677;50.656;13.064;2022-11-20T01:14:04;0.10;58.90
19090;DHT22;9677;50.656;13.064;2022-11-20T01:16:38;0.10;59.00
19090;DHT22;9677;50.656;13.064;2022-11-20T01:19:10;0.10;59.00
19090;DHT22;9677;50.656;13.064;2022-11-20T01:21:46;0.10;58.90
19090;DHT22;9677;50.656;13.064;2022-11-20T01:24:17;0.10;59.00
19090;DHT22;9677;50.656;13.064;2022-11-20T01:26:48;0.00;58.90
19090;DHT22;9677;50.656;13.064;2022-11-20T01:29:20;0.10;59.00
19090;DHT22;9677;50.656;13.064;2022-11-20T01:31:52;0.00;58.90
19090;DHT22;9677;50.656;13.064;2022-11-20T01:34:21;0.00;58.90
19090;DHT22;9677;50.656;13.064;2022-11-20T01:36:51;-0.10;58.90
19090;DHT22;9677;50.656;13.064;2022-11-20T01:39:22;0.00;59.00
19090;DHT22;9677;50.656;13.064;2022-11-20T01:41:53;-0.10;59.00
19090;DHT22;9677;50.656;13.064;2022-11-20T01:44:55;0.00;59.10
19090;DHT22;9677;50.656;13.064;2022-11-20T01:47:33;0.30;59.30
19090;DHT22;9677;50.656;13.064;2022-11-20T01:50:09;-0.10;59.10
19090;DHT22;9677;50.656;13.064;2022-11-20T01:52:45;-0.10;59.20
19090;DHT22;9677;50.656;13.064;2022-11-20T01:55:19;-0.10;59.20
19090;DHT22;9677;50.656;13.064;2022-11-20T01:57:49;-0.10;59.20
19090;DHT22;9677;50.656;13.064;2022-11-20T02:00:19;-0.10;59.20
19090;DHT22;9677;50.656;13.064;2022-11-20T02:02:53;-0.10;59.20
19090;DHT22;9677;50.656;13.064;2022-11-20T02:05:28;-0.10;59.20
19090;DHT22;9677;50.656;13.064;2022-11-20T02:08:00;-0.10;59.30
19090;DHT22;9677;50.656;13.064;2022-11-20T02:10:31;-0.10;59.80
19090;DHT22;9677;50.656;13.064;2022-11-20T02:13:00;0.50;59.60
19090;DHT22;9677;50.656;13.064;2022-11-20T02:15:46;-0.10;59.30
19090;DHT22;9677;50.656;13.064;2022-11-20T02:18:19;-0.10;59.30
19090;DHT22;9677;50.656;13.064;2022-11-20T02:20:52;-0.10;59.20
19090;DHT22;9677;50.656;13.064;2022-11-20T02:23:28;-0.10;59.20
19090;DHT22;9677;50.656;13.064;2022-11-20T02:26:02;-0.10;59.20
19090;DHT22;9677;50.656;13.064;2022-11-20T02:28:33;-0.10;59.20
19090;DHT22;9677;50.656;13.064;2022-11-20T02:31:01;-0.10;59.20
19090;DHT22;9677;50.656;13.064;2022-11-20T02:33:30;-0.10;59.20
19090;DHT22;9677;50.656;13.064;2022-11-20T02:35:58;-0.10;59.20
19090;DHT22;9677;50.656;13.064;2022-11-20T02:38:27;-0.10;59.20
19090;DHT22;9677;50.656;13.064;2022-11-20T02:40:56;-0.10;59.20
19090;DHT22;9677;50.656;13.064;2022-11-20T02:43:26;0.30;59.40
19090;DHT22;9677;50.656;13.064;2022-11-20T02:45:54;-0.10;59.20
19090;DHT22;9677;50.656;13.064;2022-11-20T02:48:23;-0.10;59.20
19090;DHT22;9677;50.656;13.064;2022-11-20T02:50:55;-0.20;59.20
19090;DHT22;9677;50.656;13.064;2022-11-20T02:53:23;-0.20;59.00
19090;DHT22;9677;50.656;13.064;2022-11-20T02:55:52;-0.20;59.00
19090;DHT22;9677;50.656;13.064;2022-11-20T02:58:20;-0.20;58.90
19090;DHT22;9677;50.656;13.064;2022-11-20T03:00:52;-0.20;58.90
19090;DHT22;9677;50.656;13.064;2022-11-20T03:03:20;-0.20;58.80
19090;DHT22;9677;50.656;13.064;2022-11-20T03:05:49;-0.20;58.80
19090;DHT22;9677;50.656;13.064;2022-11-20T03:08:18;-0.20;58.80
19090;DHT22;9677;50.656;13.064;2022-11-20T03:10:46;-0.30;58.80
19090;DHT22;9677;50.656;13.064;2022-11-20T03:13:15;-0.30;58.80
19090;DHT22;9677;50.656;13.064;2022-11-20T03:15:43;-0.30;58.80
19090;DHT22;9677;50.656;13.064;2022-11-20T03:18:13;-0.30;58.80
19090;DHT22;9677;50.656;13.064;2022-11-20T03:20:42;-0.40;58.70
19090;DHT22;9677;50.656;13.064;2022-11-20T03:23:11;-0.40;58.70
19090;DHT22;9677;50.656;13.064;2022-11-20T03:25:39;-0.40;58.80
19090;DHT22;9677;50.656;13.064;2022-11-20T03:28:08;-0.10;59.00
19090;DHT22;9677;50.656;13.064;2022-11-20T03:30:36;-0.50;58.90
19090;DHT22;9677;50.656;13.064;2022-11-20T03:33:05;-0.50;58.90
19090;DHT22;9677;50.656;13.064;2022-11-20T03:35:35;-0.40;59.10
19090;DHT22;9677;50.656;13.064;2022-11-20T03:38:03;-0.50;59.00
19090;DHT22;9677;50.656;13.064;2022-11-20T03:40:34;-0.40;59.10
19090;DHT22;9677;50.656;13.064;2022-11-20T03:43:03;-0.50;59.10
19090;DHT22;9677;50.656;13.064;2022-11-20T03:45:31;-0.50;59.00
19090;DHT22;9677;50.656;13.064;2022-11-20T03:48:00;-0.40;59.10
19090;DHT22;9677;50.656;13.064;2022-11-20T03:50:28;-0.50;59.00
19090;DHT22;9677;50.656;13.064;2022-11-20T03:52:58;-0.50;59.00
19090;DHT22;9677;50.656;13.064;2022-11-20T03:55:27;-0.50;59.00
19090;DHT22;9677;50.656;13.064;2022-11-20T03:57:55;-0.50;59.00
19090;DHT22;9677;50.656;13.064;2022-11-20T04:00:24;-0.50;59.00
19090;DHT22;9677;50.656;13.064;2022-11-20T04:02:53;-0.50;59.00
19090;DHT22;9677;50.656;13.064;2022-11-20T04:05:21;-0.50;59.00
19090;DHT22;9677;50.656;13.064;2022-11-20T04:07:50;-0.50;59.00
19090;DHT22;9677;50.656;13.064;2022-11-20T04:10:20;-0.50;59.00
19090;DHT22;9677;50.656;13.064;2022-11-20T04:12:48;-0.50;59.00
19090;DHT22;9677;50.656;13.064;2022-11-20T04:15:17;-0.50;59.00
19090;DHT22;9677;50.656;13.064;2022-11-20T04:17:46;-0.50;59.00
19090;DHT22;9677;50.656;13.064;2022-11-20T04:20:14;-0.30;59.10
19090;DHT22;9677;50.656;13.064;2022-11-20T04:22:43;-0.60;58.90
19090;DHT22;9677;50.656;13.064;2022-11-20T04:25:11;-0.60;58.90
19090;DHT22;9677;50.656;13.064;2022-11-20T04:27:41;-0.60;58.90
19090;DHT22;9677;50.656;13.064;2022-11-20T04:32:40;-0.60;59.10
19090;DHT22;9677;50.656;13.064;2022-11-20T04:35:09;-0.60;59.00
19090;DHT22;9677;50.656;13.064;2022-11-20T04:37:37;-0.60;59.00
19090;DHT22;9677;50.656;13.064;2022-11-20T04:40:06;-0.60;59.00
19090;DHT22;9677;50.656;13.064;2022-11-20T04:42:35;-0.60;59.10
19090;DHT22;9677;50.656;13.064;2022-11-20T04:45:06;-0.60;59.10
19090;DHT22;9677;50.656;13.064;2022-11-20T04:47:35;-0.60;59.10
19090;DHT22;9677;50.656;13.064;2022-11-20T04:50:04;-0.60;59.00
19090;DHT22;9677;50.656;13.064;2022-11-20T04:52:34;-0.60;59.00
19090;DHT22;9677;50.656;13.064;2022-11-20T04:55:03;-0.70;58.90
19090;DHT22;9677;50.656;13.064;2022-11-20T04:57:32;-0.70;58.90
19090;DHT22;9677;50.656;13.064;2022-11-20T05:00:01;-0.70;58.90
19090;DHT22;9677;50.656;13.064;2022-11-20T05:02:32;-0.70;58.90
19090;DHT22;9677;50.656;13.064;2022-11-20T05:05:00;-0.70;58.80
19090;DHT22;9677;50.656;13.064;2022-11-20T05:07:29;-0.70;58.80
19090;DHT22;9677;50.656;13.064;2022-11-20T05:09:57;-0.70;58.90
19090;DHT22;9677;50.656;13.064;2022-11-20T05:12:26;-0.80;58.90
19090;DHT22;9677;50.656;13.064;2022-11-20T05:14:55;-0.70;59.00
19090;DHT22;9677;50.656;13.064;2022-11-20T05:17:24;-0.80;58.90
19090;DHT22;9677;50.656;13.064;2022-11-20T05:19:54;-0.80;59.00
19090;DHT22;9677;50.656;13.064;2022-11-20T05:22:22;-0.80;59.00
19090;DHT22;9677;50.656;13.064;2022-11-20T05:24:51;-0.70;59.10
19090;DHT22;9677;50.656;13.064;2022-11-20T05:27:20;-0.80;59.10
19090;DHT22;9677;50.656;13.064;2022-11-20T05:29:48;-0.80;59.10
19090;DHT22;9677;50.656;13.064;2022-11-20T05:32:17;-0.80;59.10
19090;DHT22;9677;50.656;13.064;2022-11-20T05:34:45;-0.80;59.00
19090;DHT22;9677;50.656;13.064;2022-11-20T05:37:15;-0.80;59.00
19090;DHT22;9677;50.656;13.064;2022-11-20T05:39:44;-0.80;59.00
19090;DHT22;9677;50.656;13.064;2022-11-20T05:42:12;-0.80;59.00
19090;DHT22;9677;50.656;13.064;2022-11-20T05:45:00;-0.80;59.00
19090;DHT22;9677;50.656;13.064;2022-11-20T05:47:32;-0.80;59.00
19090;DHT22;9677;50.656;13.064;2022-11-20T05:50:02;-0.80;59.00
19090;DHT22;9677;50.656;13.064;2022-11-20T05:52:32;-0.80;59.00
19090;DHT22;9677;50.656;13.064;2022-11-20T05:55:00;-0.80;59.00
19090;DHT22;9677;50.656;13.064;2022-11-20T05:57:30;-0.80;59.00
19090;DHT22;9677;50.656;13.064;2022-11-20T05:59:59;-0.90;59.00
19090;DHT22;9677;50.656;13.064;2022-11-20T06:02:30;-0.80;59.00
19090;DHT22;9677;50.656;13.064;2022-11-20T06:04:58;-0.80;59.00
19090;DHT22;9677;50.656;13.064;2022-11-20T06:07:27;-0.90;58.90
19090;DHT22;9677;50.656;13.064;2022-11-20T06:09:57;-0.90;59.40
19090;DHT22;9677;50.656;13.064;2022-11-20T06:12:26;-0.90;58.70
19090;DHT22;9677;50.656;13.064;2022-11-20T06:14:54;-0.90;58.70
19090;DHT22;9677;50.656;13.064;2022-11-20T06:17:23;-0.90;58.70
19090;DHT22;9677;50.656;13.064;2022-11-20T06:19:51;-0.90;58.80
19090;DHT22;9677;50.656;13.064;2022-11-20T06:22:20;-0.90;58.90
19090;DHT22;9677;50.656;13.064;2022-11-20T06:25:10;-0.20;59.20
19090;DHT22;9677;50.656;13.064;2022-11-20T06:27:39;-1.00;58.80
19090;DHT22;9677;50.656;13.064;2022-11-20T06:30:09;-1.00;59.00
19090;DHT22;9677;50.656;13.064;2022-11-20T06:32:38;-1.00;58.90
19090;DHT22;9677;50.656;13.064;2022-11-20T06:35:08;-1.00;58.90
19090;DHT22;9677;50.656;13.064;2022-11-20T06:37:37;-1.00;59.00
19090;DHT22;9677;50.656;13.064;2022-11-20T06:40:06;-1.00;59.00
19090;DHT22;9677;50.656;13.064;2022-11-20T06:42:37;-1.00;59.00
19090;DHT22;9677;50.656;13.064;2022-11-20T06:45:07;-1.00;59.00
19090;DHT22;9677;50.656;13.064;2022-11-20T06:47:36;-1.00;59.00
19090;DHT22;9677;50.656;13.064;2022-11-20T06:50:06;-1.00;59.00
19090;DHT22;9677;50.656;13.064;2022-11-20T06:52:34;-1.00;59.00
19090;DHT22;9677;50.656;13.064;2022-11-20T06:55:09;-1.00;59.00
19090;DHT22;9677;50.656;13.064;2022-11-20T06:57:39;-1.00;58.90
19090;DHT22;9677;50.656;13.064;2022-11-20T07:00:09;-1.00;58.80
19090;DHT22;9677;50.656;13.064;2022-11-20T07:02:39;-1.00;58.80
19090;DHT22;9677;50.656;13.064;2022-11-20T07:05:08;-1.10;58.70
19090;DHT22;9677;50.656;13.064;2022-11-20T07:07:36;-1.10;58.80
19090;DHT22;9677;50.656;13.064;2022-11-20T07:10:06;-1.10;58.80
19090;DHT22;9677;50.656;13.064;2022-11-20T07:12:35;-1.10;58.80
19090;DHT22;9677;50.656;13.064;2022-11-20T07:15:06;-1.10;58.90
19090;DHT22;9677;50.656;13.064;2022-11-20T07:17:35;-1.20;58.90
19090;DHT22;9677;50.656;13.064;2022-11-20T07:20:04;-1.20;58.90
19090;DHT22;9677;50.656;13.064;2022-11-20T07:22:33;-1.20;58.90
19090;DHT22;9677;50.656;13.064;2022-11-20T07:25:02;-1.20;58.90
19090;DHT22;9677;50.656;13.064;2022-11-20T07:27:31;-1.20;58.90
19090;DHT22;9677;50.656;13.064;2022-11-20T07:29:59;-1.20;58.90
19090;DHT22;9677;50.656;13.064;2022-11-20T07:32:29;-1.20;58.90
19090;DHT22;9677;50.656;13.064;2022-11-20T07:34:58;-1.20;58.90
19090;DHT22;9677;50.656;13.064;2022-11-20T07:37:27;-1.20;58.90
19090;DHT22;9677;50.656;13.064;2022-11-20T07:39:55;-1.20;58.90
19090;DHT22;9677;50.656;13.064;2022-11-20T07:42:24;-1.20;59.00
19090;DHT22;9677;50.656;13.064;2022-11-20T07:44:52;-0.30;59.50
19090;DHT22;9677;50.656;13.064;2022-11-20T07:47:21;-1.20;59.10
19090;DHT22;9677;50.656;13.064;2022-11-20T07:49:51;-1.20;59.20
19090;DHT22;9677;50.656;13.064;2022-11-20T07:52:19;-1.20;59.20
19090;DHT22;9677;50.656;13.064;2022-11-20T07:54:48;-1.20;59.20
19090;DHT22;9677;50.656;13.064;2022-11-20T07:57:16;-1.20;59.20
19090;DHT22;9677;50.656;13.064;2022-11-20T07:59:50;-1.20;59.20
19090;DHT22;9677;50.656;13.064;2022-11-20T08:02:18;-1.20;59.20
19090;DHT22;9677;50.656;13.064;2022-11-20T08:04:47;-0.90;59.40
19090;DHT22;9677;50.656;13.064;2022-11-20T08:07:17;-1.20;59.30
19090;DHT22;9677;50.656;13.064;2022-11-20T08:09:46;-1.20;59.50
19090;DHT22;9677;50.656;13.064;2022-11-20T08:12:18;-1.10;59.60
19090;DHT22;9677;50.656;13.064;2022-11-20T08:15:06;-1.10;59.80
19090;DHT22;9677;50.656;13.064;2022-11-20T08:17:39;-1.10;59.80
19090;DHT22;9677;50.656;13.064;2022-11-20T08:20:08;-1.00;59.90
19090;DHT22;9677;50.656;13.064;2022-11-20T08:22:39;-0.90;60.00
19090;DHT22;9677;50.656;13.064;2022-11-20T08:25:08;-0.90;60.00
19090;DHT22;9677;50.656;13.064;2022-11-20T08:27:36;-0.90;60.00
19090;DHT22;9677;50.656;13.064;2022-11-20T08:30:06;-0.80;60.20
19090;DHT22;9677;50.656;13.064;2022-11-20T08:32:36;-0.80;60.20
19090;DHT22;9677;50.656;13.064;2022-11-20T08:35:05;-0.70;60.20
19090;DHT22;9677;50.656;13.064;2022-11-20T08:37:34;-0.60;60.20
19090;DHT22;9677;50.656;13.064;2022-11-20T08:40:07;-0.30;60.30
19090;DHT22;9677;50.656;13.064;2022-11-20T08:42:47;-0.50;60.20
19090;DHT22;9677;50.656;13.064;2022-11-20T08:45:16;-0.50;60.30
19090;DHT22;9677;50.656;13.064;2022-11-20T08:47:45;-0.40;60.30
19090;DHT22;9677;50.656;13.064;2022-11-20T08:50:16;-0.30;60.40
19090;DHT22;9677;50.656;13.064;2022-11-20T08:52:45;-0.30;60.40
19090;DHT22;9677;50.656;13.064;2022-11-20T08:55:15;-0.20;60.50
19090;DHT22;9677;50.656;13.064;2022-11-20T08:57:43;-0.10;60.50
19090;DHT22;9677;50.656;13.064;2022-11-20T09:00:17;-0.10;60.40
19090;DHT22;9677;50.656;13.064;2022-11-20T09:02:46;0.00;60.50
19090;DHT22;9677;50.656;13.064;2022-11-20T09:05:14;0.10;60.40
19090;DHT22;9677;50.656;13.064;2022-11-20T09:07:43;0.10;60.40
19090;DHT22;9677;50.656;13.064;2022-11-20T09:10:12;0.20;60.50
19090;DHT22;9677;50.656;13.064;2022-11-20T09:12:58;0.20;60.50
19090;DHT22;9677;50.656;13.064;2022-11-20T09:15:26;0.30;60.50
19090;DHT22;9677;50.656;13.064;2022-11-20T09:17:56;0.40;60.40
19090;DHT22;9677;50.656;13.064;2022-11-20T09:20:27;0.40;60.40
19090;DHT22;9677;50.656;13.064;2022-11-20T09:22:57;0.50;60.50
19090;DHT22;9677;50.656;13.064;2022-11-20T09:25:26;0.60;60.40
19090;DHT22;9677;50.656;13.064;2022-11-20T09:27:59;0.60;60.40
19090;DHT22;9677;50.656;13.064;2022-11-20T09:30:27;0.70;60.50
19090;DHT22;9677;50.656;13.064;2022-11-20T09:32:57;0.80;60.40
19090;DHT22;9677;50.656;13.064;2022-11-20T09:35:26;0.80;60.30
19090;DHT22;9677;50.656;13.064;2022-11-20T09:37:54;0.90;60.40
19090;DHT22;9677;50.656;13.064;2022-11-20T09:40:25;1.00;60.40
19090;DHT22;9677;50.656;13.064;2022-11-20T09:42:59;1.00;61.20
19090;DHT22;9677;50.656;13.064;2022-11-20T09:45:39;1.10;60.40
19090;DHT22;9677;50.656;13.064;2022-11-20T09:48:25;1.40;60.60
19090;DHT22;9677;50.656;13.064;2022-11-20T09:51:06;1.40;60.70
19090;DHT22;9677;50.656;13.064;2022-11-20T09:53:46;1.50;60.60
19090;DHT22;9677;50.656;13.064;2022-11-20T09:56:21;1.60;60.70
19090;DHT22;9677;50.656;13.064;2022-11-20T09:58:53;1.70;60.70
19090;DHT22;9677;50.656;13.064;2022-11-20T10:01:26;1.50;60.50
19090;DHT22;9677;50.656;13.064;2022-11-20T10:04:02;1.60;60.70
19090;DHT22;9677;50.656;13.064;2022-11-20T10:06:33;1.70;60.80
19090;DHT22;9677;50.656;13.064;2022-11-20T10:09:18;1.70;60.70
19090;DHT22;9677;50.656;13.064;2022-11-20T10:12:01;1.80;60.70
19090;DHT22;9677;50.656;13.064;2022-11-20T10:14:50;1.90;60.60
19090;DHT22;9677;50.656;13.064;2022-11-20T10:17:35;2.00;60.60
19090;DHT22;9677;50.656;13.064;2022-11-20T10:20:19;2.10;60.50
19090;DHT22;9677;50.656;13.064;2022-11-20T10:23:03;2.10;60.30
19090;DHT22;9677;50.656;13.064;2022-11-20T10:25:53;2.20;60.20
19090;DHT22;9677;50.656;13.064;2022-11-20T10:28:43;2.30;60.30
19090;DHT22;9677;50.656;13.064;2022-11-20T10:31:31;2.30;60.20
19090;DHT22;9677;50.656;13.064;2022-11-20T10:34:06;2.40;60.20
19090;DHT22;9677;50.656;13.064;2022-11-20T10:36:46;2.40;60.10
19090;DHT22;9677;50.656;13.064;2022-11-20T10:39:25;2.40;60.10
19090;DHT22;9677;50.656;13.064;2022-11-20T10:41:59;2.60;60.20
19090;DHT22;9677;50.656;13.064;2022-11-20T10:44:29;2.80;60.30
19090;DHT22;9677;50.656;13.064;2022-11-20T10:47:25;2.80;60.30
19090;DHT22;9677;50.656;13.064;2022-11-20T10:49:58;2.70;60.30
19090;DHT22;9677;50.656;13.064;2022-11-20T10:52:35;2.70;60.30
19090;DHT22;9677;50.656;13.064;2022-11-20T10:55:22;2.70;60.30
19090;DHT22;9677;50.656;13.064;2022-11-20T10:58:00;2.80;60.40
19090;DHT22;9677;50.656;13.064;2022-11-20T11:00:34;2.90;60.40
19090;DHT22;9677;50.656;13.064;2022-11-20T11:03:22;3.10;60.50
19090;DHT22;9677;50.656;13.064;2022-11-20T11:05:56;3.00;60.30
19090;DHT22;9677;50.656;13.064;2022-11-20T11:08:35;3.10;60.30
19090;DHT22;9677;50.656;13.064;2022-11-20T11:11:14;3.10;61.00
19090;DHT22;9677;50.656;13.064;2022-11-20T11:13:49;3.20;60.20
19090;DHT22;9677;50.656;13.064;2022-11-20T11:16:23;3.30;60.20
19090;DHT22;9677;50.656;13.064;2022-11-20T11:19:05;3.30;60.10
19090;DHT22;9677;50.656;13.064;2022-11-20T11:21:34;3.30;60.00
19090;DHT22;9677;50.656;13.064;2022-11-20T11:24:19;3.40;60.10
19090;DHT22;9677;50.656;13.064;2022-11-20T11:27:13;3.50;60.20
19090;DHT22;9677;50.656;13.064;2022-11-20T11:29:45;3.40;60.20
19090;DHT22;9677;50.656;13.064;2022-11-20T11:32:17;3.50;60.20
19090;DHT22;9677;50.656;13.064;2022-11-20T11:35:00;3.50;60.20
19090;DHT22;9677;50.656;13.064;2022-11-20T11:37:37;3.60;60.30
19090;DHT22;9677;50.656;13.064;2022-11-20T11:40:11;3.60;60.30
19090;DHT22;9677;50.656;13.064;2022-11-20T11:42:58;3.70;60.40
19090;DHT22;9677;50.656;13.064;2022-11-20T11:45:29;3.70;60.50
19090;DHT22;9677;50.656;13.064;2022-11-20T11:47:58;3.90;60.70
19090;DHT22;9677;50.656;13.064;2022-11-20T11:50:30;3.80;60.60
19090;DHT22;9677;50.656;13.064;2022-11-20T11:53:07;3.90;60.70
19090;DHT22;9677;50.656;13.064;2022-11-20T11:55:42;4.10;60.80
19090;DHT22;9677;50.656;13.064;2022-11-20T11:58:20;4.00;60.70
19090;DHT22;9677;50.656;13.064;2022-11-20T12:01:03;4.10;60.80
19090;DHT22;9677;50.656;13.064;2022-11-20T12:03:38;4.20;60.80
19090;DHT22;9677;50.656;13.064;2022-11-20T12:06:12;4.20;60.80
19090;DHT22;9677;50.656;13.064;2022-11-20T12:08:46;4.20;60.70
19090;DHT22;9677;50.656;13.064;2022-11-20T12:11:21;4.30;60.70
19090;DHT22;9677;50.656;13.064;2022-11-20T12:13:55;4.40;60.80
19090;DHT22;9677;50.656;13.064;2022-11-20T12:16:30;4.60;60.90
19090;DHT22;9677;50.656;13.064;2022-11-20T12:19:08;4.40;60.70
19090;DHT22;9677;50.656;13.064;2022-11-20T12:22:05;4.50;60.70
19090;DHT22;9677;50.656;13.064;2022-11-20T12:24:44;4.50;60.70
19090;DHT22;9677;50.656;13.064;2022-11-20T12:27:41;4.50;60.70
19090;DHT22;9677;50.656;13.064;2022-11-20T12:30:14;4.60;60.80
19090;DHT22;9677;50.656;13.064;2022-11-20T12:33:09;4.60;60.70
19090;DHT22;9677;50.656;13.064;2022-11-20T12:36:02;4.70;60.80
19090;DHT22;9677;50.656;13.064;2022-11-20T12:39:05;4.70;60.70
19090;DHT22;9677;50.656;13.064;2022-11-20T12:45:48;4.80;60.70
19090;DHT22;9677;50.656;13.064;2022-11-20T12:48:43;4.80;60.70
19090;DHT22;9677;50.656;13.064;2022-11-20T12:51:47;4.90;60.70
19090;DHT22;9677;50.656;13.064;2022-11-20T12:54:50;4.90;60.60
19090;DHT22;9677;50.656;13.064;2022-11-20T12:57:32;4.90;60.70
19090;DHT22;9677;50.656;13.064;2022-11-20T13:00:14;5.10;60.80
19090;DHT22;9677;50.656;13.064;2022-11-20T13:05:53;4.90;60.70
19090;DHT22;9677;50.656;13.064;2022-11-20T13:08:28;5.10;60.80
19090;DHT22;9677;50.656;13.064;2022-11-20T13:11:06;5.00;60.80
19090;DHT22;9677;50.656;13.064;2022-11-20T13:13:45;5.00;60.80
19090;DHT22;9677;50.656;13.064;2022-11-20T13:16:30;5.00;60.80
19090;DHT22;9677;50.656;13.064;2022-11-20T13:19:04;5.10;60.90
19090;DHT22;9677;50.656;13.064;2022-11-20T13:21:37;5.10;60.80
19090;DHT22;9677;50.656;13.064;2022-11-20T13:24:18;5.10;60.90
19090;DHT22;9677;50.656;13.064;2022-11-20T13:27:02;5.10;60.80
19090;DHT22;9677;50.656;13.064;2022-11-20T13:29:33;5.20;60.90
19090;DHT22;9677;50.656;13.064;2022-11-20T13:32:04;5.20;60.80
19090;DHT22;9677;50.656;13.064;2022-11-20T13:34:34;5.20;60.70
19090;DHT22;9677;50.656;13.064;2022-11-20T13:37:04;5.30;61.50
19090;DHT22;9677;50.656;13.064;2022-11-20T13:39:34;5.30;60.70
19090;DHT22;9677;50.656;13.064;2022-11-20T13:42:21;5.30;60.70
19090;DHT22;9677;50.656;13.064;2022-11-20T13:44:54;5.30;60.50
19090;DHT22;9677;50.656;13.064;2022-11-20T13:47:25;5.40;60.50
19090;DHT22;9677;50.656;13.064;2022-11-20T13:49:57;5.40;60.50
19090;DHT22;9677;50.656;13.064;2022-11-20T13:52:44;5.40;60.40
19090;DHT22;9677;50.656;13.064;2022-11-20T13:55:21;5.40;60.40
19090;DHT22;9677;50.656;13.064;2022-11-20T13:58:05;5.50;60.30
19090;DHT22;9677;50.656;13.064;2022-11-20T14:00:44;5.40;60.20
19090;DHT22;9677;50.656;13.064;2022-11-20T14:03:18;5.30;60.10
19090;DHT22;9677;50.656;13.064;2022-11-20T14:06:12;5.50;60.20
19090;DHT22;9677;50.656;13.064;2022-11-20T14:08:46;5.40;60.10
19090;DHT22;9677;50.656;13.064;2022-11-20T14:11:19;5.40;60.20
19090;DHT22;9677;50.656;13.064;2022-11-20T14:13:58;5.40;60.10
19090;DHT22;9677;50.656;13.064;2022-11-20T14:16:29;5.40;60.00
19090;DHT22;9677;50.656;13.064;2022-11-20T14:19:25;5.40;60.00
19090;DHT22;9677;50.656;13.064;2022-11-20T14:22:08;5.40;60.00
19090;DHT22;9677;50.656;13.064;2022-11-20T14:24:38;5.60;60.00
19090;DHT22;9677;50.656;13.064;2022-11-20T14:27:13;5.40;59.90
19090;DHT22;9677;50.656;13.064;2022-11-20T14:29:45;5.40;59.90
19090;DHT22;9677;50.656;13.064;2022-11-20T14:32:16;5.50;59.90
19090;DHT22;9677;50.656;13.064;2022-11-20T14:34:47;5.40;59.90
19090;DHT22;9677;50.656;13.064;2022-11-20T14:37:20;5.40;59.90
19090;DHT22;9677;50.656;13.064;2022-11-20T14:39:53;5.40;59.90
19090;DHT22;9677;50.656;13.064;2022-11-20T14:42:24;5.40;59.90
19090;DHT22;9677;50.656;13.064;2022-11-20T14:44:57;5.50;59.90
19090;DHT22;9677;50.656;13.064;2022-11-20T14:47:28;5.50;59.90
19090;DHT22;9677;50.656;13.064;2022-11-20T14:49:59;5.50;59.80
19090;DHT22;9677;50.656;13.064;2022-11-20T14:52:35;5.60;59.80
19090;DHT22;9677;50.656;13.064;2022-11-20T14:55:05;5.50;59.80
19090;DHT22;9677;50.656;13.064;2022-11-20T14:57:35;5.50;59.80
19090;DHT22;9677;50.656;13.064;2022-11-20T15:00:19;5.50;59.80
19090;DHT22;9677;50.656;13.064;2022-11-20T15:02:50;5.50;59.80
19090;DHT22;9677;50.656;13.064;2022-11-20T15:05:20;5.50;59.70
19090;DHT22;9677;50.656;13.064;2022-11-20T15:08:03;5.50;59.60
19090;DHT22;9677;50.656;13.064;2022-11-20T15:10:33;5.50;59.60
19090;DHT22;9677;50.656;13.064;2022-11-20T15:13:06;5.40;59.60
19090;DHT22;9677;50.656;13.064;2022-11-20T15:15:45;5.40;59.60
19090;DHT22;9677;50.656;13.064;2022-11-20T15:18:18;5.40;59.60
19090;DHT22;9677;50.656;13.064;2022-11-20T15:20:47;5.50;59.60
19090;DHT22;9677;50.656;13.064;2022-11-20T15:23:18;5.50;59.60
19090;DHT22;9677;50.656;13.064;2022-11-20T15:25:48;5.40;59.50
19090;DHT22;9677;50.656;13.064;2022-11-20T15:28:19;5.40;59.50
19090;DHT22;9677;50.656;13.064;2022-11-20T15:30:50;5.40;59.50
19090;DHT22;9677;50.656;13.064;2022-11-20T15:33:19;5.40;59.50
19090;DHT22;9677;50.656;13.064;2022-11-20T15:35:47;5.40;59.50
19090;DHT22;9677;50.656;13.064;2022-11-20T15:38:16;5.30;59.40
19090;DHT22;9677;50.656;13.064;2022-11-20T15:40:44;5.30;59.30
19090;DHT22;9677;50.656;13.064;2022-11-20T15:43:13;5.30;59.40
19090;DHT22;9677;50.656;13.064;2022-11-20T15:45:44;5.30;59.40
19090;DHT22;9677;50.656;13.064;2022-11-20T15:48:18;5.40;59.50
19090;DHT22;9677;50.656;13.064;2022-11-20T15:50:52;5.20;59.40
19090;DHT22;9677;50.656;13.064;2022-11-20T15:53:22;5.20;59.50
19090;DHT22;9677;50.656;13.064;2022-11-20T15:55:51;5.40;59.60
19090;DHT22;9677;50.656;13.064;2022-11-20T15:58:19;5.20;59.40
19090;DHT22;9677;50.656;13.064;2022-11-20T16:00:50;5.20;59.50
19090;DHT22;9677;50.656;13.064;2022-11-20T16:03:20;5.20;59.50
19090;DHT22;9677;50.656;13.064;2022-11-20T16:05:49;5.30;59.50
19090;DHT22;9677;50.656;13.064;2022-11-20T16:08:17;5.20;59.40
19090;DHT22;9677;50.656;13.064;2022-11-20T16:10:46;5.20;59.40
19090;DHT22;9677;50.656;13.064;2022-11-20T16:13:16;5.20;59.40
19090;DHT22;9677;50.656;13.064;2022-11-20T16:16:04;5.30;59.50
19090;DHT22;9677;50.656;13.064;2022-11-20T16:18:37;5.10;59.30
19090;DHT22;9677;50.656;13.064;2022-11-20T16:21:11;5.10;59.20
19090;DHT22;9677;50.656;13.064;2022-11-20T16:23:40;5.10;59.20
19090;DHT22;9677;50.656;13.064;2022-11-20T16:26:11;5.10;59.20